sensor_id;sensor_type;location;lat;lon;timestamp;temperature;humidity
8945;DHT22;4507;40.232;29.132;2023-06-26T00:01:03;22.80;98.40
8945;DHT22;4507;40.232;29.132;2023-06-26T00:03:33;22.80;98.40
8945;DHT22;4507;40.232;29.132;2023-06-26T00:06:02;22.80;98.40
8945;DHT22;4507;40.232;29.132;2023-06-26T00:08:31;22.80;98.50
8945;DHT22;4507;40.232;29.132;2023-06-26T00:11:00;22.70;98.50
8945;DHT22;4507;40.232;29.132;2023-06-26T00:13:49;22.80;98.50
8945;DHT22;4507;40.232;29.132;2023-06-26T00:16:18;22.70;98.50
8945;DHT22;4507;40.232;29.132;2023-06-26T00:18:47;22.70;98.50
8945;DHT22;4507;40.232;29.132;2023-06-26T00:21:16;22.70;98.60
8945;DHT22;4507;40.232;29.132;2023-06-26T00:23:46;22.70;98.60
8945;DHT22;4507;40.232;29.132;2023-06-26T00:26:15;22.70;98.70
8945;DHT22;4507;40.232;29.132;2023-06-26T00:28:44;22.60;98.80
8945;DHT22;4507;40.232;29.132;2023-06-26T00:31:15;22.60;98.90
8945;DHT22;4507;40.232;29.132;2023-06-26T00:33:44;22.60;99.10
8945;DHT22;4507;40.232;29.132;2023-06-26T00:36:13;22.60;99.50
8945;DHT22;4507;40.232;29.132;2023-06-26T00:38:42;22.60;99.30
8945;DHT22;4507;40.232;29.132;2023-06-26T00:41:29;22.50;99.40
8945;DHT22;4507;40.232;29.132;2023-06-26T00:43:58;22.50;99.50
8945;DHT22;4507;40.232;29.132;2023-06-26T00:46:29;22.50;99.60
8945;DHT22;4507;40.232;29.132;2023-06-26T00:49:00;22.50;99.80
8945;DHT22;4507;40.232;29.132;2023-06-26T00:51:30;22.40;99.90
8945;DHT22;4507;40.232;29.132;2023-06-26T00:54:00;22.40;99.90
8945;DHT22;4507;40.232;29.132;2023-06-26T00:56:30;22.40;99.90
8945;DHT22;4507;40.232;29.132;2023-06-26T00:59:18;22.40;99.90
8945;DHT22;4507;40.232;29.132;2023-06-26T01:01:49;22.40;99.90
8945;DHT22;4507;40.232;29.132;2023-06-26T01:04:18;22.40;99.90
8945;DHT22;4507;40.232;29.132;2023-06-26T01:06:47;22.40;99.90
8945;DHT22;4507;40.232;29.132;2023-06-26T01:09:18;22.30;99.90
8945;DHT22;4507;40.232;29.132;2023-06-26T01:11:50;22.40;99.90
8945;DHT22;4507;40.232;29.132;2023-06-26T01:14:21;22.30;99.90
8945;DHT22;4507;40.232;29.132;2023-06-26T01:16:51;22.30;99.90
8945;DHT22;4507;40.232;29.132;2023-06-26T01:19:27;22.30;99.90
8945;DHT22;4507;40.232;29.132;2023-06-26T01:22:00;22.30;99.90
8945;DHT22;4507;40.232;29.132;2023-06-26T01:24:35;22.30;99.90
8945;DHT22;4507;40.232;29.132;2023-06-26T01:27:08;22.30;99.90
8945;DHT22;4507;40.232;29.132;2023-06-26T01:29:39;22.30;99.90
8945;DHT22;4507;40.232;29.132;2023-06-26T01:32:09;22.30;99.90
8945;DHT22;4507;40.232;29.132;2023-06-26T01:34:38;22.30;99.90
8945;DHT22;4507;40.232;29.132;2023-06-26T01:37:07;22.30;99.90
8945;DHT22;4507;40.232;29.132;2023-06-26T01:39:36;22.30;99.90
8945;DHT22;4507;40.232;29.132;2023-06-26T01:42:05;22.20;99.90
8945;DHT22;4507;40.232;29.132;2023-06-26T01:44:42;22.20;99.90
8945;DHT22;4507;40.232;29.132;2023-06-26T01:47:16;22.20;99.90
8945;DHT22;4507;40.232;29.132;2023-06-26T01:49:53;22.20;99.90
8945;DHT22;4507;40.232;29.132;2023-06-26T01:52:27;22.20;99.90
8945;DHT22;4507;40.232;29.132;2023-06-26T01:55:05;22.10;99.90
8945;DHT22;4507;40.232;29.132;2023-06-26T01:57:38;22.10;99.90
8945;DHT22;4507;40.232;29.132;2023-06-26T02:00:11;22.00;99.90
8945;DHT22;4507;40.232;29.132;2023-06-26T02:02:42;22.00;99.90
8945;DHT22;4507;40.232;29.132;2023-06-26T02:05:14;22.00;99.90
8945;DHT22;4507;40.232;29.132;2023-06-26T02:07:43;22.00;99.90
8945;DHT22;4507;40.232;29.132;2023-06-26T02:10:12;22.00;99.90
8945;DHT22;4507;40.232;29.132;2023-06-26T02:12:41;22.00;99.90
8945;DHT22;4507;40.232;29.132;2023-06-26T02:15:14;21.90;99.90
8945;DHT22;4507;40.232;29.132;2023-06-26T02:17:43;21.90;99.90
8945;DHT22;4507;40.232;29.132;2023-06-26T02:20:16;21.90;99.90
8945;DHT22;4507;40.232;29.132;2023-06-26T02:22:45;21.90;99.90
8945;DHT22;4507;40.232;29.132;2023-06-26T02:25:14;21.80;99.90
8945;DHT22;4507;40.232;29.132;2023-06-26T02:27:44;21.90;99.90
8945;DHT22;4507;40.232;29.132;2023-06-26T02:30:14;21.90;99.90
8945;DHT22;4507;40.232;29.132;2023-06-26T02:32:44;21.90;99.90
8945;DHT22;4507;40.232;29.132;2023-06-26T02:35:13;21.90;99.90
8945;DHT22;4507;40.232;29.132;2023-06-26T02:37:42;21.90;99.90
8945;DHT22;4507;40.232;29.132;2023-06-26T02:40:13;21.90;99.90
8945;DHT22;4507;40.232;29.132;2023-06-26T02:42:42;21.90;99.90
8945;DHT22;4507;40.232;29.132;2023-06-26T02:45:11;22.00;99.90
8945;DHT22;4507;40.232;29.132;2023-06-26T02:47:42;21.90;99.90
8945;DHT22;4507;40.232;29.132;2023-06-26T02:50:12;21.90;99.90
8945;DHT22;4507;40.232;29.132;2023-06-26T02:53:19;21.90;99.90
8945;DHT22;4507;40.232;29.132;2023-06-26T02:55:48;21.90;99.90
8945;DHT22;4507;40.232;29.132;2023-06-26T02:58:17;21.90;99.90
8945;DHT22;4507;40.232;29.132;2023-06-26T03:00:47;21.90;99.90
8945;DHT22;4507;40.232;29.132;2023-06-26T03:03:19;21.80;99.90
8945;DHT22;4507;40.232;29.132;2023-06-26T03:05:48;21.80;99.90
8945;DHT22;4507;40.232;29.132;2023-06-26T03:08:36;21.80;99.90
8945;DHT22;4507;40.232;29.132;2023-06-26T03:11:06;21.80;99.90
8945;DHT22;4507;40.232;29.132;2023-06-26T03:13:54;21.80;99.90
8945;DHT22;4507;40.232;29.132;2023-06-26T03:16:24;21.80;99.90
8945;DHT22;4507;40.232;29.132;2023-06-26T03:18:55;21.80;99.90
8945;DHT22;4507;40.232;29.132;2023-06-26T03:21:24;21.80;99.90
8945;DHT22;4507;40.232;29.132;2023-06-26T03:23:53;21.80;99.90
8945;DHT22;4507;40.232;29.132;2023-06-26T03:26:22;21.80;99.90
8945;DHT22;4507;40.232;29.132;2023-06-26T03:28:58;21.80;99.90
8945;DHT22;4507;40.232;29.132;2023-06-26T03:31:28;21.80;99.90
8945;DHT22;4507;40.232;29.132;2023-06-26T03:33:59;21.80;99.90
8945;DHT22;4507;40.232;29.132;2023-06-26T03:36:28;21.80;99.90
8945;DHT22;4507;40.232;29.132;2023-06-26T03:38:57;21.80;99.90
8945;DHT22;4507;40.232;29.132;2023-06-26T03:41:27;21.80;99.90
8945;DHT22;4507;40.232;29.132;2023-06-26T03:43:56;21.80;99.90
8945;DHT22;4507;40.232;29.132;2023-06-26T03:46:34;21.90;99.90
8945;DHT22;4507;40.232;29.132;2023-06-26T03:49:04;21.90;99.90
8945;DHT22;4507;40.232;29.132;2023-06-26T03:51:37;21.90;99.90
8945;DHT22;4507;40.232;29.132;2023-06-26T03:54:06;21.90;99.90
8945;DHT22;4507;40.232;29.132;2023-06-26T03:56:35;21.90;99.90
8945;DHT22;4507;40.232;29.132;2023-06-26T03:59:05;22.00;99.90
8945;DHT22;4507;40.232;29.132;2023-06-26T04:01:36;22.00;99.90
8945;DHT22;4507;40.232;29.132;2023-06-26T04:04:07;22.00;99.90
8945;DHT22;4507;40.232;29.132;2023-06-26T04:06:55;22.10;99.90
8945;DHT22;4507;40.232;29.132;2023-06-26T04:09:24;22.10;99.90
8945;DHT22;4507;40.232;29.132;2023-06-26T04:11:53;22.20;99.90
8945;DHT22;4507;40.232;29.132;2023-06-26T04:14:22;22.30;99.90
8945;DHT22;4507;40.232;29.132;2023-06-26T04:16:51;22.30;99.90
8945;DHT22;4507;40.232;29.132;2023-06-26T04:19:22;22.30;99.90
8945;DHT22;4507;40.232;29.132;2023-06-26T04:21:51;22.40;99.90
8945;DHT22;4507;40.232;29.132;2023-06-26T04:24:20;22.50;99.90
8945;DHT22;4507;40.232;29.132;2023-06-26T04:26:49;22.60;99.90
8945;DHT22;4507;40.232;29.132;2023-06-26T04:29:18;22.60;99.90
8945;DHT22;4507;40.232;29.132;2023-06-26T04:31:47;22.70;99.90
8945;DHT22;4507;40.232;29.132;2023-06-26T04:34:16;22.80;99.90
8945;DHT22;4507;40.232;29.132;2023-06-26T04:36:46;22.80;99.90
8945;DHT22;4507;40.232;29.132;2023-06-26T04:39:15;22.90;99.90
8945;DHT22;4507;40.232;29.132;2023-06-26T04:41:44;22.90;99.90
8945;DHT22;4507;40.232;29.132;2023-06-26T04:44:14;22.90;99.90
8945;DHT22;4507;40.232;29.132;2023-06-26T04:46:43;23.00;99.90
8945;DHT22;4507;40.232;29.132;2023-06-26T04:49:12;23.00;99.90
8945;DHT22;4507;40.232;29.132;2023-06-26T04:51:46;23.00;99.90
8945;DHT22;4507;40.232;29.132;2023-06-26T04:54:16;23.00;99.90
8945;DHT22;4507;40.232;29.132;2023-06-26T04:56:45;23.00;99.90
8945;DHT22;4507;40.232;29.132;2023-06-26T04:59:14;23.00;99.90
8945;DHT22;4507;40.232;29.132;2023-06-26T05:01:43;23.10;99.90
8945;DHT22;4507;40.232;29.132;2023-06-26T05:04:15;23.10;99.90
8945;DHT22;4507;40.232;29.132;2023-06-26T05:06:46;23.10;99.90
8945;DHT22;4507;40.232;29.132;2023-06-26T05:09:15;23.20;99.90
8945;DHT22;4507;40.232;29.132;2023-06-26T05:11:44;23.20;99.90
8945;DHT22;4507;40.232;29.132;2023-06-26T05:14:13;23.20;99.90
8945;DHT22;4507;40.232;29.132;2023-06-26T05:16:42;23.20;99.90
8945;DHT22;4507;40.232;29.132;2023-06-26T05:19:11;23.20;99.90
8945;DHT22;4507;40.232;29.132;2023-06-26T05:21:40;23.20;99.90
8945;DHT22;4507;40.232;29.132;2023-06-26T05:24:13;23.20;99.90
8945;DHT22;4507;40.232;29.132;2023-06-26T05:26:44;23.20;99.90
8945;DHT22;4507;40.232;29.132;2023-06-26T05:29:14;23.20;99.90
8945;DHT22;4507;40.232;29.132;2023-06-26T05:31:45;23.20;99.90
8945;DHT22;4507;40.232;29.132;2023-06-26T05:34:15;23.20;99.90
8945;DHT22;4507;40.232;29.132;2023-06-26T05:36:46;23.20;99.90
8945;DHT22;4507;40.232;29.132;2023-06-26T05:39:18;23.20;99.90
8945;DHT22;4507;40.232;29.132;2023-06-26T05:41:48;23.30;99.90
8945;DHT22;4507;40.232;29.132;2023-06-26T05:44:17;23.30;99.90
8945;DHT22;4507;40.232;29.132;2023-06-26T05:46:46;23.30;99.90
8945;DHT22;4507;40.232;29.132;2023-06-26T05:49:15;23.40;99.90
8945;DHT22;4507;40.232;29.132;2023-06-26T05:51:45;23.40;99.90
8945;DHT22;4507;40.232;29.132;2023-06-26T05:54:14;23.40;99.90
8945;DHT22;4507;40.232;29.132;2023-06-26T05:56:46;23.50;99.90
8945;DHT22;4507;40.232;29.132;2023-06-26T05:59:16;23.50;99.90
8945;DHT22;4507;40.232;29.132;2023-06-26T06:01:46;23.60;99.90
8945;DHT22;4507;40.232;29.132;2023-06-26T06:04:15;23.70;99.90
8945;DHT22;4507;40.232;29.132;2023-06-26T06:06:44;23.70;99.90
8945;DHT22;4507;40.232;29.132;2023-06-26T06:09:13;23.80;99.90
8945;DHT22;4507;40.232;29.132;2023-06-26T06:11:42;23.90;99.90
8945;DHT22;4507;40.232;29.132;2023-06-26T06:14:13;24.00;99.90
8945;DHT22;4507;40.232;29.132;2023-06-26T06:16:42;24.10;99.90
8945;DHT22;4507;40.232;29.132;2023-06-26T06:19:11;24.20;99.90
8945;DHT22;4507;40.232;29.132;2023-06-26T06:21:41;24.20;99.90
8945;DHT22;4507;40.232;29.132;2023-06-26T06:24:10;24.20;99.90
8945;DHT22;4507;40.232;29.132;2023-06-26T06:26:39;24.30;99.90
8945;DHT22;4507;40.232;29.132;2023-06-26T06:29:08;24.30;99.90
8945;DHT22;4507;40.232;29.132;2023-06-26T06:31:39;24.30;99.90
8945;DHT22;4507;40.232;29.132;2023-06-26T06:34:08;24.40;99.90
8945;DHT22;4507;40.232;29.132;2023-06-26T06:36:37;24.50;99.90
8945;DHT22;4507;40.232;29.132;2023-06-26T06:39:06;24.60;99.90
8945;DHT22;4507;40.232;29.132;2023-06-26T06:41:35;24.70;99.90
8945;DHT22;4507;40.232;29.132;2023-06-26T06:44:05;24.80;99.90
8945;DHT22;4507;40.232;29.132;2023-06-26T06:46:40;24.90;99.90
8945;DHT22;4507;40.232;29.132;2023-06-26T06:49:28;24.90;99.30
8945;DHT22;4507;40.232;29.132;2023-06-26T06:51:57;25.00;99.30
8945;DHT22;4507;40.232;29.132;2023-06-26T06:54:26;25.10;98.90
8945;DHT22;4507;40.232;29.132;2023-06-26T06:56:56;25.20;98.60
8945;DHT22;4507;40.232;29.132;2023-06-26T06:59:27;25.20;98.40
8945;DHT22;4507;40.232;29.132;2023-06-26T07:01:57;25.30;98.40
8945;DHT22;4507;40.232;29.132;2023-06-26T07:04:26;25.30;98.00
8945;DHT22;4507;40.232;29.132;2023-06-26T07:06:56;25.40;97.10
8945;DHT22;4507;40.232;29.132;2023-06-26T07:09:25;25.50;96.60
8945;DHT22;4507;40.232;29.132;2023-06-26T07:11:54;25.50;96.40
8945;DHT22;4507;40.232;29.132;2023-06-26T07:14:23;25.60;96.30
8945;DHT22;4507;40.232;29.132;2023-06-26T07:16:52;25.70;95.70
8945;DHT22;4507;40.232;29.132;2023-06-26T07:19:22;25.80;95.80
8945;DHT22;4507;40.232;29.132;2023-06-26T07:21:51;25.80;95.40
8945;DHT22;4507;40.232;29.132;2023-06-26T07:24:20;25.90;94.80
8945;DHT22;4507;40.232;29.132;2023-06-26T07:26:49;26.00;94.40
8945;DHT22;4507;40.232;29.132;2023-06-26T07:29:18;26.00;93.90
8945;DHT22;4507;40.232;29.132;2023-06-26T07:31:48;26.10;93.60
8945;DHT22;4507;40.232;29.132;2023-06-26T07:34:17;26.20;93.40
8945;DHT22;4507;40.232;29.132;2023-06-26T07:36:48;26.30;93.20
8945;DHT22;4507;40.232;29.132;2023-06-26T07:39:17;26.30;92.60
8945;DHT22;4507;40.232;29.132;2023-06-26T07:41:50;26.40;92.10
8945;DHT22;4507;40.232;29.132;2023-06-26T07:44:19;26.50;92.30
8945;DHT22;4507;40.232;29.132;2023-06-26T07:46:48;26.60;92.30
8945;DHT22;4507;40.232;29.132;2023-06-26T07:49:17;26.60;92.10
8945;DHT22;4507;40.232;29.132;2023-06-26T07:51:48;26.70;91.90
8945;DHT22;4507;40.232;29.132;2023-06-26T07:54:17;26.80;91.20
8945;DHT22;4507;40.232;29.132;2023-06-26T07:56:53;26.90;91.20
8945;DHT22;4507;40.232;29.132;2023-06-26T07:59:41;27.00;90.70
8945;DHT22;4507;40.232;29.132;2023-06-26T08:02:10;27.10;90.40
8945;DHT22;4507;40.232;29.132;2023-06-26T08:04:58;27.20;89.90
8945;DHT22;4507;40.232;29.132;2023-06-26T08:07:30;27.30;88.80
8945;DHT22;4507;40.232;29.132;2023-06-26T08:09:59;27.40;88.20
8945;DHT22;4507;40.232;29.132;2023-06-26T08:12:28;27.40;87.90
8945;DHT22;4507;40.232;29.132;2023-06-26T08:14:57;27.60;87.80
8945;DHT22;4507;40.232;29.132;2023-06-26T08:17:26;27.60;86.60
8945;DHT22;4507;40.232;29.132;2023-06-26T08:19:56;27.80;85.90
8945;DHT22;4507;40.232;29.132;2023-06-26T08:22:25;27.80;85.70
8945;DHT22;4507;40.232;29.132;2023-06-26T08:24:56;27.90;85.40
8945;DHT22;4507;40.232;29.132;2023-06-26T08:27:25;28.00;85.40
8945;DHT22;4507;40.232;29.132;2023-06-26T08:29:54;28.10;84.80
8945;DHT22;4507;40.232;29.132;2023-06-26T08:32:23;28.20;83.60
8945;DHT22;4507;40.232;29.132;2023-06-26T08:34:52;28.30;83.00
8945;DHT22;4507;40.232;29.132;2023-06-26T08:37:21;28.40;81.80
8945;DHT22;4507;40.232;29.132;2023-06-26T08:39:50;28.40;80.40
8945;DHT22;4507;40.232;29.132;2023-06-26T08:42:20;28.50;79.70
8945;DHT22;4507;40.232;29.132;2023-06-26T08:44:50;28.60;79.50
8945;DHT22;4507;40.232;29.132;2023-06-26T08:47:30;28.70;80.10
8945;DHT22;4507;40.232;29.132;2023-06-26T08:50:07;28.80;79.40
8945;DHT22;4507;40.232;29.132;2023-06-26T08:52:42;28.90;78.00
8945;DHT22;4507;40.232;29.132;2023-06-26T08:55:12;28.90;77.70
8945;DHT22;4507;40.232;29.132;2023-06-26T08:57:45;29.00;75.90
8945;DHT22;4507;40.232;29.132;2023-06-26T09:00:15;29.10;75.50
8945;DHT22;4507;40.232;29.132;2023-06-26T09:02:45;29.20;75.00
8945;DHT22;4507;40.232;29.132;2023-06-26T09:05:15;29.20;75.10
8945;DHT22;4507;40.232;29.132;2023-06-26T09:07:44;29.40;74.40
8945;DHT22;4507;40.232;29.132;2023-06-26T09:10:13;29.50;73.20
8945;DHT22;4507;40.232;29.132;2023-06-26T09:12:47;29.60;73.00
8945;DHT22;4507;40.232;29.132;2023-06-26T09:15:19;29.70;72.40
8945;DHT22;4507;40.232;29.132;2023-06-26T09:18:07;29.80;72.10
8945;DHT22;4507;40.232;29.132;2023-06-26T09:20:36;29.90;71.20
8945;DHT22;4507;40.232;29.132;2023-06-26T09:23:06;30.00;70.00
8945;DHT22;4507;40.232;29.132;2023-06-26T09:25:39;30.00;70.20
8945;DHT22;4507;40.232;29.132;2023-06-26T09:28:10;30.10;69.70
8945;DHT22;4507;40.232;29.132;2023-06-26T09:30:39;30.30;68.40
8945;DHT22;4507;40.232;29.132;2023-06-26T09:33:16;30.40;67.20
8945;DHT22;4507;40.232;29.132;2023-06-26T09:35:46;30.50;65.90
8945;DHT22;4507;40.232;29.132;2023-06-26T09:38:15;30.50;65.70
8945;DHT22;4507;40.232;29.132;2023-06-26T09:40:45;30.60;65.30
8945;DHT22;4507;40.232;29.132;2023-06-26T09:43:15;30.60;64.30
8945;DHT22;4507;40.232;29.132;2023-06-26T09:45:46;30.60;63.70
8945;DHT22;4507;40.232;29.132;2023-06-26T09:48:15;30.70;63.90
8945;DHT22;4507;40.232;29.132;2023-06-26T09:50:45;30.80;63.10
8945;DHT22;4507;40.232;29.132;2023-06-26T09:53:35;30.80;62.80
8945;DHT22;4507;40.232;29.132;2023-06-26T09:56:10;30.90;63.10
8945;DHT22;4507;40.232;29.132;2023-06-26T09:58:45;31.00;63.50
8945;DHT22;4507;40.232;29.132;2023-06-26T10:01:14;31.10;63.70
8945;DHT22;4507;40.232;29.132;2023-06-26T10:03:43;31.30;62.70
8945;DHT22;4507;40.232;29.132;2023-06-26T10:06:13;31.40;61.60
8945;DHT22;4507;40.232;29.132;2023-06-26T10:08:43;31.50;60.80
8945;DHT22;4507;40.232;29.132;2023-06-26T10:11:16;31.50;59.70
8945;DHT22;4507;40.232;29.132;2023-06-26T10:13:51;31.60;59.10
8945;DHT22;4507;40.232;29.132;2023-06-26T10:16:31;31.70;58.70
8945;DHT22;4507;40.232;29.132;2023-06-26T10:19:04;31.80;58.50
8945;DHT22;4507;40.232;29.132;2023-06-26T10:21:38;31.90;58.40
8945;DHT22;4507;40.232;29.132;2023-06-26T10:24:08;31.90;57.40
8945;DHT22;4507;40.232;29.132;2023-06-26T10:26:44;32.00;58.00
8945;DHT22;4507;40.232;29.132;2023-06-26T10:29:15;32.10;57.70
8945;DHT22;4507;40.232;29.132;2023-06-26T10:31:48;32.20;56.80
8945;DHT22;4507;40.232;29.132;2023-06-26T10:34:37;32.30;56.90
8945;DHT22;4507;40.232;29.132;2023-06-26T10:37:06;32.30;57.40
8945;DHT22;4507;40.232;29.132;2023-06-26T10:39:48;32.30;56.60
8945;DHT22;4507;40.232;29.132;2023-06-26T10:42:19;32.40;56.20
8945;DHT22;4507;40.232;29.132;2023-06-26T10:44:52;32.40;56.60
8945;DHT22;4507;40.232;29.132;2023-06-26T10:47:40;32.40;56.90
8945;DHT22;4507;40.232;29.132;2023-06-26T10:50:20;32.50;57.10
8945;DHT22;4507;40.232;29.132;2023-06-26T10:53:09;32.50;57.10
8945;DHT22;4507;40.232;29.132;2023-06-26T10:55:42;32.50;57.00
8945;DHT22;4507;40.232;29.132;2023-06-26T10:58:30;32.60;56.90
8945;DHT22;4507;40.232;29.132;2023-06-26T11:01:21;32.60;57.20
8945;DHT22;4507;40.232;29.132;2023-06-26T11:04:03;32.50;56.70
8945;DHT22;4507;40.232;29.132;2023-06-26T11:06:34;32.40;56.50
8945;DHT22;4507;40.232;29.132;2023-06-26T11:09:11;32.30;56.60
8945;DHT22;4507;40.232;29.132;2023-06-26T11:11:59;32.30;56.80
8945;DHT22;4507;40.232;29.132;2023-06-26T11:14:32;32.30;57.40
8945;DHT22;4507;40.232;29.132;2023-06-26T11:17:06;32.40;58.10
8945;DHT22;4507;40.232;29.132;2023-06-26T11:19:35;32.40;58.30
8945;DHT22;4507;40.232;29.132;2023-06-26T11:22:05;32.50;57.90
8945;DHT22;4507;40.232;29.132;2023-06-26T11:24:34;32.50;57.90
8945;DHT22;4507;40.232;29.132;2023-06-26T11:27:05;32.60;58.10
8945;DHT22;4507;40.232;29.132;2023-06-26T11:29:52;32.60;58.20
8945;DHT22;4507;40.232;29.132;2023-06-26T11:32:26;32.60;58.40
8945;DHT22;4507;40.232;29.132;2023-06-26T11:34:55;32.60;58.00
8945;DHT22;4507;40.232;29.132;2023-06-26T11:37:24;32.60;57.50
8945;DHT22;4507;40.232;29.132;2023-06-26T11:39:54;32.70;57.40
8945;DHT22;4507;40.232;29.132;2023-06-26T11:42:23;32.70;57.40
8945;DHT22;4507;40.232;29.132;2023-06-26T11:44:53;32.80;57.50
8945;DHT22;4507;40.232;29.132;2023-06-26T11:47:24;32.80;56.90
8945;DHT22;4507;40.232;29.132;2023-06-26T11:49:53;32.90;56.40
8945;DHT22;4507;40.232;29.132;2023-06-26T11:52:22;32.90;56.00
8945;DHT22;4507;40.232;29.132;2023-06-26T11:54:51;33.00;56.20
8945;DHT22;4507;40.232;29.132;2023-06-26T11:57:20;33.00;55.80
8945;DHT22;4507;40.232;29.132;2023-06-26T11:59:50;33.20;56.10
8945;DHT22;4507;40.232;29.132;2023-06-26T12:02:22;33.20;55.40
8945;DHT22;4507;40.232;29.132;2023-06-26T12:04:51;33.30;55.10
8945;DHT22;4507;40.232;29.132;2023-06-26T12:07:21;33.40;54.50
8945;DHT22;4507;40.232;29.132;2023-06-26T12:09:50;33.50;55.10
8945;DHT22;4507;40.232;29.132;2023-06-26T12:12:20;33.50;54.60
8945;DHT22;4507;40.232;29.132;2023-06-26T12:14:51;33.60;54.30
8945;DHT22;4507;40.232;29.132;2023-06-26T12:17:24;33.70;54.20
8945;DHT22;4507;40.232;29.132;2023-06-26T12:19:53;33.70;53.70
8945;DHT22;4507;40.232;29.132;2023-06-26T12:22:22;33.80;53.30
8945;DHT22;4507;40.232;29.132;2023-06-26T12:24:51;33.80;53.00
8945;DHT22;4507;40.232;29.132;2023-06-26T12:27:21;33.80;53.10
8945;DHT22;4507;40.232;29.132;2023-06-26T12:29:51;33.80;53.20
8945;DHT22;4507;40.232;29.132;2023-06-26T12:32:23;33.80;52.70
8945;DHT22;4507;40.232;29.132;2023-06-26T12:34:56;33.80;52.40
8945;DHT22;4507;40.232;29.132;2023-06-26T12:37:26;33.80;52.20
8945;DHT22;4507;40.232;29.132;2023-06-26T12:39:56;33.70;52.50
8945;DHT22;4507;40.232;29.132;2023-06-26T12:42:26;33.70;52.20
8945;DHT22;4507;40.232;29.132;2023-06-26T12:44:55;33.60;52.60
8945;DHT22;4507;40.232;29.132;2023-06-26T12:47:27;33.60;53.00
8945;DHT22;4507;40.232;29.132;2023-06-26T12:50:05;33.50;52.70
8945;DHT22;4507;40.232;29.132;2023-06-26T12:52:34;33.50;52.50
8945;DHT22;4507;40.232;29.132;2023-06-26T12:55:05;33.40;52.70
8945;DHT22;4507;40.232;29.132;2023-06-26T12:57:35;33.30;53.20
8945;DHT22;4507;40.232;29.132;2023-06-26T13:00:07;33.30;53.10
8945;DHT22;4507;40.232;29.132;2023-06-26T13:02:37;33.30;53.10
8945;DHT22;4507;40.232;29.132;2023-06-26T13:05:08;33.10;53.00
8945;DHT22;4507;40.232;29.132;2023-06-26T13:07:38;33.10;53.60
8945;DHT22;4507;40.232;29.132;2023-06-26T13:10:09;33.10;54.00
8945;DHT22;4507;40.232;29.132;2023-06-26T13:12:57;33.00;54.40
8945;DHT22;4507;40.232;29.132;2023-06-26T13:15:26;33.00;54.20
8945;DHT22;4507;40.232;29.132;2023-06-26T13:17:55;32.90;54.70
8945;DHT22;4507;40.232;29.132;2023-06-26T13:20:26;32.80;54.80
8945;DHT22;4507;40.232;29.132;2023-06-26T13:22:55;32.80;55.40
8945;DHT22;4507;40.232;29.132;2023-06-26T13:25:24;32.80;55.70
8945;DHT22;4507;40.232;29.132;2023-06-26T13:27:53;32.70;55.60
8945;DHT22;4507;40.232;29.132;2023-06-26T13:30:22;32.70;55.10
8945;DHT22;4507;40.232;29.132;2023-06-26T13:32:51;32.50;55.30
8945;DHT22;4507;40.232;29.132;2023-06-26T13:35:20;32.40;55.50
8945;DHT22;4507;40.232;29.132;2023-06-26T13:37:52;32.30;56.30
8945;DHT22;4507;40.232;29.132;2023-06-26T13:40:25;32.20;56.10
8945;DHT22;4507;40.232;29.132;2023-06-26T13:42:54;32.00;56.30
8945;DHT22;4507;40.232;29.132;2023-06-26T13:45:25;32.00;56.50
8945;DHT22;4507;40.232;29.132;2023-06-26T13:47:58;31.90;57.10
8945;DHT22;4507;40.232;29.132;2023-06-26T13:50:27;31.80;57.50
8945;DHT22;4507;40.232;29.132;2023-06-26T13:53:17;31.80;57.70
8945;DHT22;4507;40.232;29.132;2023-06-26T13:55:46;31.70;57.80
8945;DHT22;4507;40.232;29.132;2023-06-26T13:58:15;31.70;58.20
8945;DHT22;4507;40.232;29.132;2023-06-26T14:00:44;31.70;58.60
8945;DHT22;4507;40.232;29.132;2023-06-26T14:03:18;31.70;58.50
8945;DHT22;4507;40.232;29.132;2023-06-26T14:05:48;31.70;58.30
8945;DHT22;4507;40.232;29.132;2023-06-26T14:08:18;31.60;58.50
8945;DHT22;4507;40.232;29.132;2023-06-26T14:10:47;31.60;58.40
8945;DHT22;4507;40.232;29.132;2023-06-26T14:13:16;31.60;58.60
8945;DHT22;4507;40.232;29.132;2023-06-26T14:15:49;31.60;58.90
8945;DHT22;4507;40.232;29.132;2023-06-26T14:18:20;31.50;59.00
8945;DHT22;4507;40.232;29.132;2023-06-26T14:20:51;31.50;59.10
8945;DHT22;4507;40.232;29.132;2023-06-26T14:23:22;31.40;58.90
8945;DHT22;4507;40.232;29.132;2023-06-26T14:25:52;31.40;59.10
8945;DHT22;4507;40.232;29.132;2023-06-26T14:28:21;31.30;59.30
8945;DHT22;4507;40.232;29.132;2023-06-26T14:30:50;31.20;59.50
8945;DHT22;4507;40.232;29.132;2023-06-26T14:33:19;31.20;60.10
8945;DHT22;4507;40.232;29.132;2023-06-26T14:35:48;31.10;60.30
8945;DHT22;4507;40.232;29.132;2023-06-26T14:38:17;31.10;61.20
8945;DHT22;4507;40.232;29.132;2023-06-26T14:40:48;31.00;61.30
8945;DHT22;4507;40.232;29.132;2023-06-26T14:43:17;30.90;61.80
8945;DHT22;4507;40.232;29.132;2023-06-26T14:45:47;30.90;62.10
8945;DHT22;4507;40.232;29.132;2023-06-26T14:48:16;30.90;62.50
8945;DHT22;4507;40.232;29.132;2023-06-26T14:50:46;30.80;62.80
8945;DHT22;4507;40.232;29.132;2023-06-26T14:53:15;30.80;63.20
8945;DHT22;4507;40.232;29.132;2023-06-26T14:55:44;30.80;62.90
8945;DHT22;4507;40.232;29.132;2023-06-26T14:58:14;30.70;62.90
8945;DHT22;4507;40.232;29.132;2023-06-26T15:00:43;30.70;63.10
8945;DHT22;4507;40.232;29.132;2023-06-26T15:03:12;30.60;63.30
8945;DHT22;4507;40.232;29.132;2023-06-26T15:05:41;30.60;63.50
8945;DHT22;4507;40.232;29.132;2023-06-26T15:08:10;30.50;63.70
8945;DHT22;4507;40.232;29.132;2023-06-26T15:10:39;30.50;63.90
8945;DHT22;4507;40.232;29.132;2023-06-26T15:13:08;30.40;64.20
8945;DHT22;4507;40.232;29.132;2023-06-26T15:15:39;30.40;64.50
8945;DHT22;4507;40.232;29.132;2023-06-26T15:18:08;30.30;64.70
8945;DHT22;4507;40.232;29.132;2023-06-26T15:20:37;30.30;65.20
8945;DHT22;4507;40.232;29.132;2023-06-26T15:23:06;30.30;65.10
8945;DHT22;4507;40.232;29.132;2023-06-26T15:25:35;30.20;65.10
8945;DHT22;4507;40.232;29.132;2023-06-26T15:28:04;30.20;65.30
8945;DHT22;4507;40.232;29.132;2023-06-26T15:30:33;30.10;65.60
8945;DHT22;4507;40.232;29.132;2023-06-26T15:33:04;30.00;65.60
8945;DHT22;4507;40.232;29.132;2023-06-26T15:35:33;30.00;65.60
8945;DHT22;4507;40.232;29.132;2023-06-26T15:38:02;29.80;65.70
8945;DHT22;4507;40.232;29.132;2023-06-26T15:40:31;29.70;65.90
8945;DHT22;4507;40.232;29.132;2023-06-26T15:43:00;29.60;66.20
8945;DHT22;4507;40.232;29.132;2023-06-26T15:45:29;29.60;66.70
8945;DHT22;4507;40.232;29.132;2023-06-26T15:47:58;29.40;66.60
8945;DHT22;4507;40.232;29.132;2023-06-26T15:50:28;29.40;67.10
8945;DHT22;4507;40.232;29.132;2023-06-26T15:52:57;29.30;67.80
8945;DHT22;4507;40.232;29.132;2023-06-26T15:55:26;29.30;68.10
8945;DHT22;4507;40.232;29.132;2023-06-26T15:57:55;29.20;68.00
8945;DHT22;4507;40.232;29.132;2023-06-26T16:00:24;29.10;68.10
8945;DHT22;4507;40.232;29.132;2023-06-26T16:02:53;29.10;68.00
8945;DHT22;4507;40.232;29.132;2023-06-26T16:05:22;29.00;68.10
8945;DHT22;4507;40.232;29.132;2023-06-26T16:07:53;29.00;68.10
8945;DHT22;4507;40.232;29.132;2023-06-26T16:10:24;28.90;68.20